Time;durP1;ratioP1;P1;durP2;ratioP2;P2;SDS_P1;SDS_P2;PMS_P1;PMS_P2;Temp;Humidity;BMP_temperature;BMP_pressure;BME280_temperature;BME280_humidity;BME280_pressure;Samples;Min_cycle;Max_cycle;Signal;HPM_P1;HPM_P2
2023/09/27 00:02:21;;;;;;;5.45;4.53;;;;;;;;;;4936694;29;20019;-68
2023/09/27 00:04:46;;;;;;;5.35;4.45;;;;;;;;;;4936731;29;20035;-67
2023/09/27 00:07:11;;;;;;;5.68;4.40;;;;;;;;;;4936609;29;20027;-70
2023/09/27 00:09:37;;;;;;;8.10;4.38;;;;;;;;;;4936676;29;20055;-68
2023/09/27 00:12:04;;;;;;;5.68;4.45;;;;;;;;;;4936620;29;20055;-69
2023/09/27 00:14:30;;;;;;;6.88;4.70;;;;;;;;;;4936613;29;20024;-67
2023/09/27 00:16:56;;;;;;;7.03;4.70;;;;;;;;;;4936447;29;20043;-67
2023/09/27 00:19:22;;;;;;;6.93;4.30;;;;;;;;;;4936048;29;20110;-66
2023/09/27 00:21:47;;;;;;;7.85;4.60;;;;;;;;;;4936495;29;20394;-67
2023/09/27 00:24:13;;;;;;;6.57;4.82;;;;;;;;;;4936370;29;20032;-68
2023/09/27 00:26:38;;;;;;;6.68;4.60;;;;;;;;;;4936293;29;20068;-70
2023/09/27 00:29:04;;;;;;;5.30;4.70;;;;;;;;;;4936276;29;20028;-67
2023/09/27 00:31:29;;;;;;;5.80;4.38;;;;;;;;;;4936518;29;20025;-67
2023/09/27 00:33:55;;;;;;;5.03;4.43;;;;;;;;;;4936530;29;20468;-67
2023/09/27 00:36:20;;;;;;;5.45;4.72;;;;;;;;;;4927039;29;20031;-70
2023/09/27 00:38:46;;;;;;;5.03;4.47;;;;;;;;;;4918987;29;20031;-68
2023/09/27 00:41:11;;;;;;;6.47;4.60;;;;;;;;;;4928282;29;20036;-70
2023/09/27 00:43:37;;;;;;;5.78;4.70;;;;;;;;;;4936100;29;20032;-70
2023/09/27 00:46:05;;;;;;;6.45;4.55;;;;;;;;;;4918622;29;20083;-67
2023/09/27 07:41:52;;;;;;;3.30;3.00;;;;;;;;;;5645621;23;20071;-75
2023/09/27 07:44:18;;;;;;;3.40;3.10;;;;;;;;;;4976443;28;20045;-74
2023/09/27 07:46:44;;;;;;;3.80;3.40;;;;;;;;;;4976210;28;20282;-73
2023/09/27 07:49:10;;;;;;;4.25;3.33;;;;;;;;;;4976069;28;20029;-73
2023/09/27 07:51:36;;;;;;;3.50;3.20;;;;;;;;;;4976187;28;20047;-73
2023/09/27 07:54:04;;;;;;;4.15;3.28;;;;;;;;;;4976029;28;20427;-74
2023/09/27 07:56:36;;;;;;;3.50;3.08;;;;;;;;;;4975934;28;20093;-74
2023/09/27 07:59:03;;;;;;;3.58;3.28;;;;;;;;;;4975810;28;20033;-74
2023/09/27 08:01:29;;;;;;;3.42;3.13;;;;;;;;;;4976650;28;20522;-74
2023/09/27 08:04:05;;;;;;;3.42;3.13;;;;;;;;;;4975679;28;20058;-74
2023/09/27 08:06:31;;;;;;;4.47;3.40;;;;;;;;;;4975996;28;20525;-74
2023/09/27 08:08:57;;;;;;;3.97;3.40;;;;;;;;;;4978543;28;20479;-74
2023/09/27 08:11:23;;;;;;;4.03;3.40;;;;;;;;;;4977214;28;20034;-73
2023/09/27 08:13:49;;;;;;;3.80;3.40;;;;;;;;;;4977729;28;20027;-74
2023/09/27 08:16:14;;;;;;;3.30;3.00;;;;;;;;;;4976218;28;20027;-74
2023/09/27 08:18:42;;;;;;;3.60;3.30;;;;;;;;;;4975912;28;20023;-73
2023/09/27 08:21:11;;;;;;;3.25;2.95;;;;;;;;;;4978107;28;20061;-74
2023/09/27 08:23:37;;;;;;;3.20;3.00;;;;;;;;;;4977527;28;20480;-73
2023/09/27 08:26:02;;;;;;;4.20;3.17;;;;;;;;;;4976536;28;20157;-73
2023/09/27 08:28:31;;;;;;;3.67;3.05;;;;;;;;;;4977395;28;20084;-73
2023/09/27 08:31:04;;;;;;;3.50;3.20;;;;;;;;;;4975172;28;20038;-74
2023/09/27 08:33:30;;;;;;;3.83;3.10;;;;;;;;;;4983798;28;20023;-74
2023/09/27 08:35:56;;;;;;;3.97;3.17;;;;;;;;;;4987173;28;20026;-74
2023/09/27 08:38:22;;;;;;;3.90;3.40;;;;;;;;;;4969579;28;20462;-75
2023/09/27 08:40:49;;;;;;;3.92;3.05;;;;;;;;;;4986861;28;20041;-74
2023/09/27 08:43:15;;;;;;;3.90;3.00;;;;;;;;;;4982563;28;20042;-75
2023/09/27 08:45:42;;;;;;;3.50;3.20;;;;;;;;;;4982158;28;20022;-75
2023/09/27 08:48:13;;;;;;;3.40;3.10;;;;;;;;;;4982911;28;20038;-73
2023/09/27 08:50:39;;;;;;;3.25;2.95;;;;;;;;;;4977222;28;20035;-74
2023/09/27 08:53:05;;;;;;;4.28;3.28;;;;;;;;;;4975703;28;20379;-74
2023/09/27 08:55:32;;;;;;;7.57;3.35;;;;;;;;;;4966443;28;20019;-74
2023/09/27 08:57:58;;;;;;;3.47;3.20;;;;;;;;;;4963600;28;20110;-75
2023/09/27 09:00:26;;;;;;;5.43;3.47;;;;;;;;;;4944805;28;20030;-75
2023/09/27 09:02:57;;;;;;;3.55;3.25;;;;;;;;;;4962742;28;20058;-74
2023/09/27 09:05:26;;;;;;;4.25;3.10;;;;;;;;;;4966295;28;20035;-74
2023/09/27 09:07:52;;;;;;;5.40;3.40;;;;;;;;;;4970620;28;20031;-75
2023/09/27 09:10:17;;;;;;;3.40;3.10;;;;;;;;;;4956892;29;20094;-73
2023/09/27 09:12:45;;;;;;;3.45;3.00;;;;;;;;;;4958619;29;20031;-75
2023/09/27 09:15:15;;;;;;;6.35;3.15;;;;;;;;;;4954856;29;20023;-75
2023/09/27 09:17:48;;;;;;;3.78;3.33;;;;;;;;;;4954676;29;20035;-73
2023/09/27 09:22:44;;;;;;;3.33;3.03;;;;;;;;;;4994221;28;20034;-73
2023/09/27 09:25:09;;;;;;;3.90;3.13;;;;;;;;;;4994228;28;20084;-72
2023/09/27 09:27:35;;;;;;;3.13;2.90;;;;;;;;;;4996041;28;20474;-73
2023/09/27 09:30:06;;;;;;;3.80;3.40;;;;;;;;;;4994693;28;20462;-73
2023/09/27 09:32:33;;;;;;;3.60;3.30;;;;;;;;;;4993765;28;20386;-75
2023/09/27 09:34:59;;;;;;;3.47;3.15;;;;;;;;;;4992813;28;20026;-67
2023/09/27 09:37:29;;;;;;;3.30;3.00;;;;;;;;;;4992062;28;20026;-67
2023/09/27 09:40:15;;;;;;;3.47;2.72;;;;;;;;;;4992837;28;20057;-71
2023/09/27 09:42:42;;;;;;;3.50;3.20;;;;;;;;;;4991972;28;20038;-68
2023/09/27 09:45:12;;;;;;;4.97;3.25;;;;;;;;;;4992503;28;20618;-67
2023/09/27 09:47:43;;;;;;;3.38;3.08;;;;;;;;;;4991259;28;20037;-73
2023/09/27 09:50:19;;;;;;;3.40;3.05;;;;;;;;;;4975240;28;20483;-74
2023/09/27 09:52:57;;;;;;;4.75;4.28;;;;;;;;;;4992911;28;20054;-67
2023/09/27 09:55:25;;;;;;;7.32;5.30;;;;;;;;;;4993230;28;20065;-69
2023/09/27 09:58:14;;;;;;;4.22;3.38;;;;;;;;;;4993305;28;20049;-67
2023/09/27 10:00:48;;;;;;;4.95;3.95;;;;;;;;;;4981299;28;20038;-69
2023/09/27 10:03:20;;;;;;;4.80;4.30;;;;;;;;;;4993001;28;20395;-70
2023/09/27 10:05:50;;;;;;;5.28;3.83;;;;;;;;;;4993260;28;20487;-67
2023/09/27 10:08:19;;;;;;;4.55;3.40;;;;;;;;;;4992826;28;20033;-70
2023/09/27 10:10:45;;;;;;;5.97;3.35;;;;;;;;;;4993547;28;20035;-67
2023/09/27 10:13:12;;;;;;;5.40;3.85;;;;;;;;;;4992774;28;20026;-67
2023/09/27 10:15:38;;;;;;;3.85;3.45;;;;;;;;;;4992832;28;20027;-66
2023/09/27 10:18:22;;;;;;;4.07;3.60;;;;;;;;;;4992842;28;20030;-72
2023/09/27 10:21:01;;;;;;;3.47;3.17;;;;;;;;;;4992709;28;20027;-66
2023/09/27 10:23:26;;;;;;;3.83;3.40;;;;;;;;;;4992718;28;20065;-73
2023/09/27 10:25:52;;;;;;;3.85;3.50;;;;;;;;;;4993257;28;20034;-67
2023/09/27 10:28:18;;;;;;;4.30;3.90;;;;;;;;;;4992606;28;20282;-71
2023/09/27 10:30:48;;;;;;;4.50;3.90;;;;;;;;;;4992534;28;20160;-68
2023/09/27 10:33:16;;;;;;;5.90;3.90;;;;;;;;;;4993255;28;20046;-67
2023/09/27 10:35:44;;;;;;;4.60;3.60;;;;;;;;;;4992767;28;20030;-74
2023/09/27 10:38:10;;;;;;;4.13;3.72;;;;;;;;;;4992499;28;20031;-67
2023/09/27 10:40:46;;;;;;;5.25;3.88;;;;;;;;;;4992715;28;20479;-73
2023/09/27 10:43:38;;;;;;;3.88;3.47;;;;;;;;;;4992476;28;20070;-70
2023/09/27 10:46:04;;;;;;;4.90;3.88;;;;;;;;;;4989202;28;20034;-67
2023/09/27 10:48:34;;;;;;;4.47;3.70;;;;;;;;;;4992491;28;20031;-67
2023/09/27 10:50:59;;;;;;;4.20;3.80;;;;;;;;;;4992505;28;20157;-67
2023/09/27 10:53:26;;;;;;;4.95;3.83;;;;;;;;;;4992495;28;20050;-68
2023/09/27 10:55:52;;;;;;;4.00;3.60;;;;;;;;;;4992755;28;20027;-73
2023/09/27 10:58:18;;;;;;;4.97;3.85;;;;;;;;;;4992516;28;20603;-70
2023/09/27 11:01:01;;;;;;;4.43;3.70;;;;;;;;;;4992415;28;20241;-66
2023/09/27 11:03:29;;;;;;;3.95;3.55;;;;;;;;;;4994069;28;20501;-67
2023/09/27 11:06:06;;;;;;;3.95;3.47;;;;;;;;;;4995954;28;20030;-67
2023/09/27 11:08:31;;;;;;;3.70;3.40;;;;;;;;;;4995765;28;20041;-67
2023/09/27 11:10:58;;;;;;;3.67;3.38;;;;;;;;;;4995894;28;20368;-67
2023/09/27 11:13:25;;;;;;;3.85;3.45;;;;;;;;;;4995635;28;20057;-72
2023/09/27 11:15:51;;;;;;;4.15;3.75;;;;;;;;;;4995638;28;20023;-72
2023/09/27 11:18:16;;;;;;;5.32;3.50;;;;;;;;;;4995717;28;20034;-67
2023/09/27 11:20:42;;;;;;;4.00;3.45;;;;;;;;;;4977942;28;20046;-67
2023/09/27 11:23:08;;;;;;;4.78;3.63;;;;;;;;;;4995581;28;20069;-67
2023/09/27 11:25:35;;;;;;;3.67;3.20;;;;;;;;;;4995598;28;20061;-67
2023/09/27 11:28:01;;;;;;;3.92;3.53;;;;;;;;;;4995404;28;20057;-67
2023/09/27 11:30:30;;;;;;;3.80;3.50;;;;;;;;;;4995766;28;20030;-67
2023/09/27 11:32:56;;;;;;;4.45;3.58;;;;;;;;;;4995348;28;20351;-73
2023/09/27 11:35:25;;;;;;;4.65;3.63;;;;;;;;;;4995268;28;20383;-68
2023/09/27 11:38:11;;;;;;;4.75;3.40;;;;;;;;;;4995387;28;20481;-69
2023/09/27 11:40:41;;;;;;;4.95;3.60;;;;;;;;;;4995174;28;20137;-67
2023/09/27 11:43:06;;;;;;;3.90;3.53;;;;;;;;;;4995249;28;20038;-71
2023/09/27 11:45:45;;;;;;;3.50;3.20;;;;;;;;;;4995359;28;20180;-68
2023/09/27 11:48:11;;;;;;;3.83;3.40;;;;;;;;;;4995016;28;20034;-68
2023/09/27 11:50:37;;;;;;;3.92;3.60;;;;;;;;;;4995116;28;20029;-69
2023/09/27 11:53:03;;;;;;;3.83;3.47;;;;;;;;;;4994996;28;20383;-69
2023/09/27 11:55:29;;;;;;;4.13;3.40;;;;;;;;;;4994981;28;20101;-68
2023/09/27 11:57:58;;;;;;;4.38;3.20;;;;;;;;;;4995067;28;20479;-67
2023/09/27 12:00:24;;;;;;;3.83;3.40;;;;;;;;;;4994862;28;20081;-68
2023/09/27 12:02:50;;;;;;;5.28;3.60;;;;;;;;;;4994719;28;20077;-67
2023/09/27 12:05:16;;;;;;;3.20;2.90;;;;;;;;;;4994689;28;20114;-72
2023/09/27 12:07:43;;;;;;;3.85;3.55;;;;;;;;;;4994656;28;20105;-67
2023/09/27 12:10:12;;;;;;;3.55;3.25;;;;;;;;;;4994612;28;20033;-67
2023/09/27 12:12:37;;;;;;;3.95;3.20;;;;;;;;;;4994731;28;20022;-68
2023/09/27 12:15:04;;;;;;;3.83;3.53;;;;;;;;;;4994826;28;20030;-69
2023/09/27 12:17:30;;;;;;;4.75;3.50;;;;;;;;;;4994731;28;20386;-71
2023/09/27 12:19:56;;;;;;;5.45;3.55;;;;;;;;;;4994521;28;20026;-67
2023/09/27 12:22:24;;;;;;;3.55;3.25;;;;;;;;;;4994521;28;20506;-67
2023/09/27 12:24:50;;;;;;;3.65;3.35;;;;;;;;;;4977035;28;20038;-75
2023/09/27 12:27:16;;;;;;;4.75;3.17;;;;;;;;;;4994204;28;20038;-69
2023/09/27 12:29:41;;;;;;;3.40;3.10;;;;;;;;;;4994457;28;20033;-68
2023/09/27 12:32:07;;;;;;;3.63;3.33;;;;;;;;;;4994470;28;20031;-67
2023/09/27 12:34:32;;;;;;;3.30;3.10;;;;;;;;;;4994276;28;20543;-68
2023/09/27 12:36:58;;;;;;;3.58;3.28;;;;;;;;;;4994134;28;20499;-72
2023/09/27 12:39:23;;;;;;;3.67;3.38;;;;;;;;;;4994237;28;20206;-67
2023/09/27 12:41:49;;;;;;;3.97;3.63;;;;;;;;;;4993775;28;20522;-69
2023/09/27 12:44:15;;;;;;;3.50;3.20;;;;;;;;;;4994038;28;20030;-69
2023/09/27 12:46:40;;;;;;;4.57;3.50;;;;;;;;;;4993730;28;20030;-72
2023/09/27 12:49:06;;;;;;;4.55;3.60;;;;;;;;;;4976367;28;20495;-67
2023/09/27 12:51:32;;;;;;;5.13;3.45;;;;;;;;;;4993764;28;20026;-67
2023/09/27 12:53:57;;;;;;;7.15;3.30;;;;;;;;;;4993943;28;20033;-67
2023/09/27 12:56:23;;;;;;;4.15;3.45;;;;;;;;;;4993759;28;20026;-68
2023/09/27 12:58:48;;;;;;;4.60;3.58;;;;;;;;;;4993701;28;20494;-74
2023/09/27 13:01:17;;;;;;;6.47;3.30;;;;;;;;;;4993923;28;20022;-66
2023/09/27 13:03:47;;;;;;;3.97;3.25;;;;;;;;;;4993872;28;20090;-67
2023/09/27 13:06:13;;;;;;;5.97;3.58;;;;;;;;;;4993664;28;20030;-68
2023/09/27 13:08:39;;;;;;;3.70;3.40;;;;;;;;;;4993306;28;20033;-72
2023/09/27 13:11:08;;;;;;;3.65;3.35;;;;;;;;;;4976145;28;20121;-72
2023/09/27 13:13:34;;;;;;;3.78;3.47;;;;;;;;;;4993465;28;20026;-67
2023/09/27 13:15:59;;;;;;;5.53;3.35;;;;;;;;;;4993394;28;20495;-72
2023/09/27 13:18:27;;;;;;;4.07;3.50;;;;;;;;;;4993402;28;20033;-67
2023/09/27 13:20:53;;;;;;;4.00;3.53;;;;;;;;;;4993328;28;20433;-67
2023/09/27 13:23:18;;;;;;;6.15;3.50;;;;;;;;;;4992521;28;20034;-66
2023/09/27 13:25:56;;;;;;;6.35;3.95;;;;;;;;;;4992756;28;20023;-67
2023/09/27 13:28:24;;;;;;;3.92;3.60;;;;;;;;;;4992701;28;20045;-71
2023/09/27 13:30:51;;;;;;;6.20;3.65;;;;;;;;;;4993312;28;20549;-70
2023/09/27 13:33:17;;;;;;;9.73;3.60;;;;;;;;;;4993617;28;20026;-68
2023/09/27 13:35:43;;;;;;;5.90;3.50;;;;;;;;;;4992911;28;20474;-70
2023/09/27 13:38:10;;;;;;;7.40;3.85;;;;;;;;;;4991855;28;20023;-71
2023/09/27 13:40:36;;;;;;;4.10;3.70;;;;;;;;;;4992284;28;20132;-67
2023/09/27 13:43:02;;;;;;;6.43;3.97;;;;;;;;;;4975062;28;20086;-68
2023/09/27 13:45:28;;;;;;;6.55;3.92;;;;;;;;;;4992866;28;20033;-68
2023/09/27 13:47:53;;;;;;;6.20;3.50;;;;;;;;;;4992957;28;20030;-68
2023/09/27 13:50:19;;;;;;;8.30;4.05;;;;;;;;;;4992080;28;20018;-68
2023/09/27 13:52:46;;;;;;;5.00;3.72;;;;;;;;;;4993501;28;20041;-68
2023/09/27 13:55:12;;;;;;;5.53;3.70;;;;;;;;;;4993245;28;20027;-68
2023/09/27 13:57:39;;;;;;;4.15;3.70;;;;;;;;;;4993246;28;20028;-69
2023/09/27 14:00:08;;;;;;;7.13;3.60;;;;;;;;;;4993275;28;20109;-70
2023/09/27 14:02:37;;;;;;;8.13;4.00;;;;;;;;;;4993289;28;20061;-69
2023/09/27 14:05:05;;;;;;;4.38;3.92;;;;;;;;;;4992928;28;20411;-68
2023/09/27 14:07:32;;;;;;;4.82;3.72;;;;;;;;;;4993140;28;20471;-70
2023/09/27 14:09:58;;;;;;;9.57;3.70;;;;;;;;;;4993201;28;20387;-68
2023/09/27 14:12:23;;;;;;;8.60;3.90;;;;;;;;;;4992815;28;20030;-69
2023/09/27 14:14:50;;;;;;;4.72;4.03;;;;;;;;;;4993185;28;20031;-68
2023/09/27 14:17:17;;;;;;;5.93;3.63;;;;;;;;;;4992883;28;20034;-70
2023/09/27 14:19:42;;;;;;;6.57;3.65;;;;;;;;;;4992731;28;20030;-69
2023/09/27 14:22:08;;;;;;;4.35;3.65;;;;;;;;;;4993166;28;20037;-68
2023/09/27 14:24:34;;;;;;;8.27;3.97;;;;;;;;;;4993268;28;20424;-68
2023/09/27 14:27:01;;;;;;;6.85;3.60;;;;;;;;;;4992673;28;20027;-67
2023/09/27 14:29:27;;;;;;;4.50;3.92;;;;;;;;;;4992773;28;20463;-68
2023/09/27 14:31:53;;;;;;;5.00;3.80;;;;;;;;;;4992684;28;20566;-68
2023/09/27 14:34:18;;;;;;;6.10;3.67;;;;;;;;;;4993029;28;20050;-70
2023/09/27 14:36:44;;;;;;;6.25;3.70;;;;;;;;;;4993186;28;20031;-70
2023/09/27 14:39:14;;;;;;;4.00;3.60;;;;;;;;;;4996723;28;20114;-68
2023/09/27 14:41:44;;;;;;;5.43;3.63;;;;;;;;;;4996419;28;20054;-71
2023/09/27 14:44:11;;;;;;;4.70;3.97;;;;;;;;;;4996345;28;20471;-70
2023/09/27 14:46:37;;;;;;;4.18;3.60;;;;;;;;;;4996521;28;20038;-68
2023/09/27 14:49:04;;;;;;;4.25;3.63;;;;;;;;;;4996231;28;20186;-68
2023/09/27 14:51:30;;;;;;;4.82;3.80;;;;;;;;;;4996266;28;20479;-68
2023/09/27 14:53:55;;;;;;;5.20;3.75;;;;;;;;;;4996211;28;20106;-68
2023/09/27 14:56:21;;;;;;;4.85;3.70;;;;;;;;;;4996195;28;20134;-68
2023/09/27 14:58:47;;;;;;;3.65;3.13;;;;;;;;;;4996118;28;20030;-71
2023/09/27 15:01:13;;;;;;;5.40;4.15;;;;;;;;;;4996020;28;20031;-69
2023/09/27 15:03:38;;;;;;;4.72;3.80;;;;;;;;;;4996013;28;20033;-69
2023/09/27 15:06:05;;;;;;;3.88;3.47;;;;;;;;;;4995937;28;20065;-68
2023/09/27 15:08:35;;;;;;;4.13;3.67;;;;;;;;;;4996170;28;20497;-72
2023/09/27 15:11:01;;;;;;;7.05;3.90;;;;;;;;;;4996043;28;20022;-68
2023/09/27 15:13:27;;;;;;;4.93;3.83;;;;;;;;;;4996075;28;20509;-70
2023/09/27 15:15:52;;;;;;;8.02;3.83;;;;;;;;;;4995968;28;20393;-69
2023/09/27 15:18:19;;;;;;;7.05;4.00;;;;;;;;;;4995965;28;20022;-72
2023/09/27 15:20:45;;;;;;;4.00;3.60;;;;;;;;;;4995916;28;20037;-72
2023/09/27 15:23:11;;;;;;;3.95;3.42;;;;;;;;;;4995867;28;20022;-69
2023/09/27 15:25:37;;;;;;;3.85;3.10;;;;;;;;;;4995641;28;20028;-68
2023/09/27 15:28:03;;;;;;;5.53;3.47;;;;;;;;;;4995567;28;20030;-68
2023/09/27 15:30:29;;;;;;;6.38;3.67;;;;;;;;;;4996088;28;20018;-70
2023/09/27 15:32:54;;;;;;;4.90;3.28;;;;;;;;;;4995561;28;20554;-68
2023/09/27 15:35:20;;;;;;;5.97;3.28;;;;;;;;;;4995525;28;20039;-68
2023/09/27 15:37:52;;;;;;;6.72;3.60;;;;;;;;;;4995614;28;20036;-73
2023/09/27 15:40:21;;;;;;;4.60;3.88;;;;;;;;;;4995453;28;20459;-69
2023/09/27 15:42:51;;;;;;;3.90;3.50;;;;;;;;;;4995028;28;20042;-73
2023/09/27 15:45:17;;;;;;;8.90;3.65;;;;;;;;;;4995654;28;20509;-69
2023/09/27 15:47:45;;;;;;;4.53;3.47;;;;;;;;;;4995192;28;20120;-68
2023/09/27 15:50:11;;;;;;;4.53;3.30;;;;;;;;;;4994463;28;20387;-69
2023/09/27 15:52:37;;;;;;;5.55;3.60;;;;;;;;;;4995143;28;20022;-70
2023/09/27 15:55:04;;;;;;;3.88;3.42;;;;;;;;;;4995101;28;20176;-68
2023/09/27 15:57:31;;;;;;;5.43;3.22;;;;;;;;;;4995003;28;20080;-68
2023/09/27 15:59:57;;;;;;;4.32;3.63;;;;;;;;;;4995267;28;20026;-69
2023/09/27 16:02:23;;;;;;;5.22;3.25;;;;;;;;;;4994779;28;20038;-71
2023/09/27 16:04:48;;;;;;;4.28;3.70;;;;;;;;;;4995236;28;20035;-71
2023/09/27 16:07:14;;;;;;;3.78;3.45;;;;;;;;;;4994954;28;20388;-69
2023/09/27 16:09:39;;;;;;;3.55;3.17;;;;;;;;;;4994774;28;20030;-69
2023/09/27 16:12:05;;;;;;;3.58;3.28;;;;;;;;;;4994742;28;20026;-69
2023/09/27 16:14:31;;;;;;;3.78;3.47;;;;;;;;;;4995037;28;20026;-69
2023/09/27 16:16:58;;;;;;;4.00;3.60;;;;;;;;;;4994559;28;20038;-68
2023/09/27 16:19:23;;;;;;;3.53;3.22;;;;;;;;;;4994661;28;20084;-69
2023/09/27 16:21:49;;;;;;;3.20;2.95;;;;;;;;;;4994686;28;20026;-69
2023/09/27 16:24:15;;;;;;;4.63;3.50;;;;;;;;;;4977200;28;20022;-68
2023/09/27 16:26:40;;;;;;;3.40;3.10;;;;;;;;;;4994736;28;20026;-69
2023/09/27 16:29:06;;;;;;;4.85;3.50;;;;;;;;;;4994449;28;20435;-69
2023/09/27 16:31:32;;;;;;;3.72;3.22;;;;;;;;;;4994642;28;20022;-69
2023/09/27 16:34:02;;;;;;;5.20;3.08;;;;;;;;;;4976892;28;20030;-70
2023/09/27 16:36:31;;;;;;;3.50;3.20;;;;;;;;;;4994815;28;20042;-70
2023/09/27 16:38:57;;;;;;;5.15;3.25;;;;;;;;;;4994175;28;20037;-69
2023/09/27 16:41:23;;;;;;;3.50;3.20;;;;;;;;;;4993989;28;20034;-70
2023/09/27 16:43:48;;;;;;;3.80;3.45;;;;;;;;;;4994343;28;20030;-69
2023/09/27 16:46:14;;;;;;;4.07;3.50;;;;;;;;;;4994358;28;20510;-75
2023/09/27 16:48:39;;;;;;;3.67;3.08;;;;;;;;;;4994125;28;20032;-69
2023/09/27 16:51:06;;;;;;;3.40;3.10;;;;;;;;;;4994290;28;20035;-69
2023/09/27 16:53:33;;;;;;;3.33;2.97;;;;;;;;;;4994042;28;20023;-69
2023/09/27 16:55:59;;;;;;;3.33;2.92;;;;;;;;;;4993947;28;20053;-71
2023/09/27 16:58:27;;;;;;;7.00;3.30;;;;;;;;;;4993982;28;20046;-75
2023/09/27 17:00:55;;;;;;;3.30;3.10;;;;;;;;;;4993171;28;20058;-73
2023/09/27 17:03:21;;;;;;;3.55;3.25;;;;;;;;;;4994217;28;20041;-69
2023/09/27 17:05:47;;;;;;;3.30;2.97;;;;;;;;;;4994026;28;20101;-68
2023/09/27 17:08:13;;;;;;;3.70;3.30;;;;;;;;;;4976183;28;20026;-76
2023/09/27 17:10:38;;;;;;;3.60;3.30;;;;;;;;;;4993623;28;20056;-68
2023/09/27 17:13:04;;;;;;;5.15;3.50;;;;;;;;;;4993804;28;20030;-69
2023/09/27 17:15:29;;;;;;;3.53;3.22;;;;;;;;;;4993917;28;20045;-69
2023/09/27 17:17:56;;;;;;;3.35;3.05;;;;;;;;;;4993894;28;20022;-68
2023/09/27 17:20:21;;;;;;;4.13;3.38;;;;;;;;;;4993896;28;20029;-74
2023/09/27 17:22:47;;;;;;;3.40;2.95;;;;;;;;;;4993458;28;20026;-72
2023/09/27 17:25:13;;;;;;;3.67;3.38;;;;;;;;;;4993561;28;20383;-70
2023/09/27 17:27:40;;;;;;;3.30;3.00;;;;;;;;;;4993414;28;20397;-72
2023/09/27 17:30:06;;;;;;;3.72;3.42;;;;;;;;;;4993609;28;20018;-75
2023/09/27 17:32:31;;;;;;;3.90;3.20;;;;;;;;;;4993345;28;20054;-69
2023/09/27 17:34:57;;;;;;;3.40;3.10;;;;;;;;;;4993681;28;20112;-74
2023/09/27 17:37:23;;;;;;;6.25;3.45;;;;;;;;;;4993542;28;20387;-69
2023/09/27 17:39:48;;;;;;;3.70;3.30;;;;;;;;;;4993543;28;20026;-71
2023/09/27 17:42:15;;;;;;;4.60;3.55;;;;;;;;;;4993222;28;20049;-69
2023/09/27 17:44:41;;;;;;;3.95;3.55;;;;;;;;;;4993541;28;20038;-71
2023/09/27 17:47:07;;;;;;;4.43;3.33;;;;;;;;;;4993146;28;20026;-68
2023/09/27 17:49:33;;;;;;;3.25;2.95;;;;;;;;;;4993296;28;20034;-69
2023/09/27 17:51:59;;;;;;;3.55;3.25;;;;;;;;;;4993142;28;20019;-74
2023/09/27 17:54:25;;;;;;;4.45;3.15;;;;;;;;;;4993209;28;20298;-68
2023/09/27 17:56:50;;;;;;;4.25;3.15;;;;;;;;;;4993090;28;20034;-71
2023/09/27 17:59:17;;;;;;;4.28;3.03;;;;;;;;;;4993291;28;20101;-74
2023/09/27 18:01:43;;;;;;;3.50;3.20;;;;;;;;;;4993014;28;20026;-70
2023/09/27 18:04:09;;;;;;;3.90;3.38;;;;;;;;;;4993258;28;20033;-72
2023/09/27 18:06:36;;;;;;;3.30;3.00;;;;;;;;;;4993343;28;20085;-69
2023/09/27 18:09:02;;;;;;;3.90;3.35;;;;;;;;;;4993582;28;20117;-69
2023/09/27 18:11:28;;;;;;;4.93;3.35;;;;;;;;;;4992901;28;20498;-69
2023/09/27 18:13:53;;;;;;;3.50;3.08;;;;;;;;;;4997417;28;20026;-68
2023/09/27 18:16:20;;;;;;;3.85;3.00;;;;;;;;;;4996885;28;20501;-68
2023/09/27 18:18:48;;;;;;;3.28;3.05;;;;;;;;;;4996839;28;20027;-69
2023/09/27 18:21:15;;;;;;;4.18;3.33;;;;;;;;;;4996747;28;20471;-71
2023/09/27 18:23:42;;;;;;;3.45;2.90;;;;;;;;;;4996875;28;20026;-75
2023/09/27 18:26:11;;;;;;;3.50;3.20;;;;;;;;;;4996830;28;20113;-68
2023/09/27 18:28:37;;;;;;;3.92;3.22;;;;;;;;;;4996654;28;20027;-68
2023/09/27 18:31:03;;;;;;;5.78;3.30;;;;;;;;;;4996866;28;20026;-68
2023/09/27 18:33:29;;;;;;;3.58;3.13;;;;;;;;;;4996684;28;20030;-68
2023/09/27 18:35:56;;;;;;;3.72;2.88;;;;;;;;;;4997089;28;20057;-68
2023/09/27 18:38:21;;;;;;;3.20;3.00;;;;;;;;;;4996515;28;20049;-68
2023/09/27 18:40:47;;;;;;;3.65;3.35;;;;;;;;;;4997129;28;20467;-75
2023/09/27 18:43:16;;;;;;;3.40;3.10;;;;;;;;;;4996250;28;20526;-73
2023/09/27 18:45:43;;;;;;;3.60;3.30;;;;;;;;;;4990366;28;20134;-68
2023/09/27 18:48:09;;;;;;;3.88;3.50;;;;;;;;;;4995072;28;20074;-68
2023/09/27 18:50:35;;;;;;;3.42;3.13;;;;;;;;;;4996109;28;20033;-76
2023/09/27 18:53:01;;;;;;;4.40;3.30;;;;;;;;;;4996003;28;20033;-69
2023/09/27 18:55:27;;;;;;;4.57;3.28;;;;;;;;;;4996110;28;20077;-68
2023/09/27 18:57:52;;;;;;;4.13;3.72;;;;;;;;;;4995935;28;20455;-68
2023/09/27 19:00:18;;;;;;;4.00;3.60;;;;;;;;;;4995401;28;20034;-68
2023/09/27 19:02:46;;;;;;;4.30;3.38;;;;;;;;;;4994367;28;20034;-72
2023/09/27 19:05:12;;;;;;;4.47;3.13;;;;;;;;;;4994595;28;20113;-68
2023/09/27 19:07:37;;;;;;;3.30;3.00;;;;;;;;;;4994073;28;20121;-73
2023/09/27 19:10:03;;;;;;;3.63;3.30;;;;;;;;;;4995127;28;20038;-68
2023/09/27 19:12:28;;;;;;;3.58;3.28;;;;;;;;;;4994981;28;20308;-73
2023/09/27 19:14:54;;;;;;;3.55;3.20;;;;;;;;;;4994752;28;20390;-75
2023/09/27 19:17:20;;;;;;;3.70;3.40;;;;;;;;;;4994927;28;20035;-68
2023/09/27 19:19:46;;;;;;;3.50;3.20;;;;;;;;;;4994558;28;20664;-72
2023/09/27 19:22:12;;;;;;;4.22;3.22;;;;;;;;;;4994754;28;20026;-67
2023/09/27 19:24:38;;;;;;;3.65;3.35;;;;;;;;;;4991882;28;20214;-77
2023/09/27 19:27:04;;;;;;;3.97;3.55;;;;;;;;;;4974884;28;20037;-76
2023/09/27 19:29:29;;;;;;;3.63;3.33;;;;;;;;;;4974655;28;20037;-68
2023/09/27 19:31:55;;;;;;;3.72;3.30;;;;;;;;;;4974576;28;20027;-68
2023/09/27 19:34:21;;;;;;;4.00;3.60;;;;;;;;;;4974386;28;20035;-68
2023/09/27 19:36:47;;;;;;;3.60;3.30;;;;;;;;;;4974199;28;20022;-76
2023/09/27 19:39:14;;;;;;;3.80;3.50;;;;;;;;;;4974227;28;20146;-77
2023/09/27 19:41:39;;;;;;;4.28;3.70;;;;;;;;;;4974081;28;20051;-64
2023/09/27 19:44:05;;;;;;;3.50;3.20;;;;;;;;;;4974292;28;20093;-68
2023/09/27 19:46:31;;;;;;;4.18;3.70;;;;;;;;;;4974206;28;20027;-68
2023/09/27 19:48:57;;;;;;;4.43;3.38;;;;;;;;;;4974122;28;20085;-68
2023/09/27 19:51:25;;;;;;;3.33;3.10;;;;;;;;;;4974022;28;20058;-68
2023/09/27 19:53:58;;;;;;;3.55;3.25;;;;;;;;;;4974197;28;20476;-74
2023/09/27 19:56:23;;;;;;;3.28;2.97;;;;;;;;;;4974014;28;20043;-71
2023/09/27 19:58:49;;;;;;;4.75;3.22;;;;;;;;;;4974168;28;20106;-69
2023/09/27 20:01:30;;;;;;;3.85;3.15;;;;;;;;;;4974193;28;20034;-71
2023/09/27 20:03:57;;;;;;;4.00;3.17;;;;;;;;;;4981170;28;20042;-68
2023/09/27 20:06:23;;;;;;;3.35;3.05;;;;;;;;;;4988598;28;20030;-68
2023/09/27 20:08:49;;;;;;;4.63;3.60;;;;;;;;;;4993089;28;20037;-75
2023/09/27 20:11:15;;;;;;;3.90;3.50;;;;;;;;;;4976068;28;20114;-70
2023/09/27 20:13:40;;;;;;;5.65;3.35;;;;;;;;;;4993548;28;20109;-74
2023/09/27 20:16:06;;;;;;;4.35;3.30;;;;;;;;;;4976277;28;20026;-72
2023/09/27 20:18:31;;;;;;;5.35;3.70;;;;;;;;;;4973770;28;20042;-68
2023/09/27 20:20:57;;;;;;;3.15;2.95;;;;;;;;;;4973591;28;20059;-68
2023/09/27 20:23:23;;;;;;;3.50;3.20;;;;;;;;;;4973959;28;20483;-70
2023/09/27 20:25:48;;;;;;;3.63;3.33;;;;;;;;;;4973431;28;20472;-76
2023/09/27 20:28:14;;;;;;;4.18;3.40;;;;;;;;;;4973531;28;20030;-68
2023/09/27 20:30:40;;;;;;;3.53;3.22;;;;;;;;;;4973682;28;20037;-69
2023/09/27 20:33:05;;;;;;;4.68;3.20;;;;;;;;;;4973557;28;20053;-67
2023/09/27 20:35:31;;;;;;;3.78;3.47;;;;;;;;;;4973524;28;20483;-71
2023/09/27 20:37:57;;;;;;;3.70;3.40;;;;;;;;;;4973537;28;20030;-67
2023/09/27 20:40:23;;;;;;;8.48;3.28;;;;;;;;;;4973105;28;20515;-68
2023/09/27 20:42:50;;;;;;;3.88;3.17;;;;;;;;;;4973076;28;20063;-68
2023/09/27 20:45:16;;;;;;;6.05;3.30;;;;;;;;;;4973312;28;20089;-75
2023/09/27 20:47:42;;;;;;;4.47;3.20;;;;;;;;;;4973074;28;20546;-67
2023/09/27 20:50:10;;;;;;;4.35;3.70;;;;;;;;;;4973500;28;20042;-67
2023/09/27 20:52:39;;;;;;;4.75;3.40;;;;;;;;;;4973325;28;20360;-72
2023/09/27 20:55:09;;;;;;;3.55;3.25;;;;;;;;;;4973222;28;20024;-68
2023/09/27 20:57:36;;;;;;;3.53;3.22;;;;;;;;;;4972872;28;20084;-68
2023/09/27 21:00:03;;;;;;;8.23;3.85;;;;;;;;;;4972928;28;20595;-75
2023/09/27 21:02:28;;;;;;;3.50;3.20;;;;;;;;;;4973219;28;20038;-67
2023/09/27 21:04:56;;;;;;;4.05;3.65;;;;;;;;;;4973215;28;20097;-74
2023/09/27 21:07:21;;;;;;;4.20;3.55;;;;;;;;;;4972849;28;20031;-67
2023/09/27 21:09:47;;;;;;;3.63;3.33;;;;;;;;;;4955881;28;20034;-67
2023/09/27 21:12:12;;;;;;;3.92;3.50;;;;;;;;;;4972802;28;20098;-69
2023/09/27 21:14:38;;;;;;;5.00;3.55;;;;;;;;;;4972792;28;20038;-68
2023/09/27 21:17:04;;;;;;;7.95;3.65;;;;;;;;;;4972585;28;20059;-69
2023/09/27 21:19:30;;;;;;;3.67;3.35;;;;;;;;;;4972498;28;20478;-70
2023/09/27 21:21:56;;;;;;;3.70;3.30;;;;;;;;;;4972936;28;20045;-67
2023/09/27 21:24:22;;;;;;;3.70;3.35;;;;;;;;;;4972660;28;20022;-71
2023/09/27 21:26:47;;;;;;;5.30;3.40;;;;;;;;;;4972749;28;20435;-68
2023/09/27 21:29:13;;;;;;;6.15;3.53;;;;;;;;;;4972567;28;20775;-68
2023/09/27 21:31:41;;;;;;;4.28;3.72;;;;;;;;;;4972389;28;20053;-68
2023/09/27 21:34:08;;;;;;;4.07;3.50;;;;;;;;;;4972359;28;20479;-68
2023/09/27 21:36:34;;;;;;;5.53;3.65;;;;;;;;;;4972465;28;20043;-75
2023/09/27 21:38:59;;;;;;;5.40;4.07;;;;;;;;;;4972323;28;20093;-68